createdAt,value
2023-05-02T00:01:01.993Z,23.47
2023-05-02T00:04:07.062Z,22.02
2023-05-02T00:07:13.131Z,24.47
2023-05-02T00:10:18.931Z,24.20
2023-05-02T00:13:24.684Z,25.12
2023-05-02T00:16:31.415Z,25.82
2023-05-02T00:19:36.678Z,23.90
2023-05-02T00:22:42.140Z,24.43
2023-05-02T00:25:48.094Z,23.57
2023-05-02T00:28:54.240Z,23.67
2023-05-02T00:31:58.976Z,23.77
2023-05-02T00:35:04.873Z,23.55
2023-05-02T00:38:11.097Z,23.15
2023-05-02T00:41:16.302Z,21.12
2023-05-02T00:44:21.979Z,21.90
2023-05-02T00:47:29.497Z,22.60
2023-05-02T00:50:28.592Z,23.65
2023-05-02T00:53:15.310Z,22.95
2023-05-02T00:56:08.117Z,21.93
2023-05-02T00:59:00.523Z,22.40
2023-05-02T01:02:32.212Z,21.15
2023-05-02T01:05:45.723Z,21.45
2023-05-02T01:09:14.465Z,21.80
2023-05-02T01:12:45.454Z,23.10
2023-05-02T01:15:52.882Z,23.90
2023-05-02T01:18:58.300Z,22.17
2023-05-02T01:22:04.340Z,23.52
2023-05-02T01:25:17.220Z,24.30
2023-05-02T01:28:59.047Z,22.67
2023-05-02T01:31:50.051Z,23.20
2023-05-02T01:34:43.186Z,22.45
2023-05-02T01:37:36.073Z,24.85
2023-05-02T01:40:43.704Z,22.13
2023-05-02T01:43:50.445Z,21.57
2023-05-02T01:46:57.266Z,22.17
2023-05-02T01:50:03.167Z,21.85
2023-05-02T01:53:08.873Z,22.13
2023-05-02T01:56:14.350Z,19.27
2023-05-02T01:59:22.689Z,22.15
2023-05-02T02:02:28.647Z,21.37
2023-05-02T02:05:35.118Z,19.57
2023-05-02T02:08:41.133Z,20.00
2023-05-02T02:11:54.606Z,21.65
2023-05-02T02:15:04.968Z,20.88
2023-05-02T02:18:22.587Z,20.92
2023-05-02T02:21:28.509Z,21.50
2023-05-02T02:24:27.059Z,21.48
2023-05-02T02:27:33.105Z,20.25
2023-05-02T02:30:38.251Z,20.55
2023-05-02T02:33:46.214Z,22.87
2023-05-02T02:36:58.346Z,22.00
2023-05-02T02:40:37.652Z,21.87
2023-05-02T02:44:00.867Z,20.65
2023-05-02T02:47:16.876Z,20.95
2023-05-02T02:51:01.207Z,20.88
2023-05-02T02:54:35.608Z,21.97
2023-05-02T02:57:51.386Z,19.48
2023-05-02T03:00:57.381Z,19.07
2023-05-02T03:04:04.322Z,17.75
2023-05-02T03:07:10.798Z,16.42
2023-05-02T03:10:18.386Z,17.15
2023-05-02T03:13:24.275Z,20.00
2023-05-02T03:16:53.005Z,21.42
2023-05-02T03:19:59.327Z,20.62
2023-05-02T03:23:05.958Z,18.30
2023-05-02T03:26:11.440Z,19.02
2023-05-02T03:29:15.906Z,17.32
2023-05-02T03:32:20.771Z,16.93
2023-05-02T03:35:26.335Z,17.75
2023-05-02T03:38:31.879Z,17.15
2023-05-02T03:41:39.195Z,16.50
2023-05-02T03:44:46.210Z,17.12
2023-05-02T03:47:52.291Z,15.45
2023-05-02T03:50:57.958Z,15.68
2023-05-02T03:54:05.696Z,14.50
2023-05-02T03:57:11.332Z,14.93
2023-05-02T04:00:17.045Z,13.55
2023-05-02T04:03:24.965Z,13.53
2023-05-02T04:06:33.246Z,13.05
2023-05-02T04:09:40.176Z,12.40
2023-05-02T04:12:46.826Z,13.08
2023-05-02T04:15:52.532Z,13.75
2023-05-02T04:18:59.521Z,14.15
2023-05-02T04:22:05.170Z,13.83
2023-05-02T04:25:13.913Z,13.95
2023-05-02T04:28:20.708Z,13.80
2023-05-02T04:31:19.528Z,14.15
2023-05-02T04:34:24.910Z,14.10
2023-05-02T04:37:31.984Z,13.93
2023-05-02T04:40:36.758Z,14.15
2023-05-02T04:43:42.676Z,13.35
2023-05-02T04:46:48.649Z,13.65
2023-05-02T04:49:55.083Z,13.58
2023-05-02T04:53:00.906Z,14.75
2023-05-02T04:56:07.062Z,13.08
2023-05-02T04:59:14.738Z,13.83
2023-05-02T05:02:13.302Z,13.58
2023-05-02T05:05:19.011Z,12.70
2023-05-02T05:08:25.607Z,10.90
2023-05-02T05:11:31.362Z,12.65
2023-05-02T05:14:37.784Z,11.53
2023-05-02T05:17:43.027Z,10.45
2023-05-02T05:20:48.473Z,10.18
2023-05-02T05:23:54.723Z,10.75
2023-05-02T05:27:01.217Z,10.55
2023-05-02T05:30:07.843Z,8.85
2023-05-02T05:33:15.039Z,9.28
2023-05-02T05:36:24.853Z,7.97
2023-05-02T05:39:32.041Z,9.18
2023-05-02T05:42:38.184Z,7.53
2023-05-02T05:45:45.243Z,7.25
2023-05-02T05:48:52.448Z,5.62
2023-05-02T05:51:59.181Z,5.62
2023-05-02T05:55:04.749Z,5.30
2023-05-02T05:58:09.426Z,6.17
2023-05-02T06:01:16.092Z,5.85
2023-05-02T06:04:23.572Z,4.20
2023-05-02T06:07:29.294Z,4.00
2023-05-02T06:10:34.747Z,4.33
2023-05-02T06:13:40.215Z,4.00
2023-05-02T06:16:45.506Z,4.65
2023-05-02T06:19:50.397Z,4.90
2023-05-02T06:22:59.675Z,4.42
2023-05-02T06:26:05.724Z,2.90
2023-05-02T06:29:10.873Z,2.17
2023-05-02T06:32:16.994Z,1.95
2023-05-02T06:35:23.678Z,1.80
2023-05-02T06:38:28.834Z,1.60
2023-05-02T06:41:34.568Z,2.33
2023-05-02T06:44:41.668Z,2.30
2023-05-02T06:47:47.908Z,2.00
2023-05-02T06:50:54.171Z,1.82
2023-05-02T06:53:59.494Z,1.85
2023-05-02T06:57:05.099Z,1.80
2023-05-02T07:00:11.233Z,2.05
2023-05-02T07:03:19.940Z,1.77
2023-05-02T07:06:27.641Z,1.50
2023-05-02T07:09:34.520Z,1.42
2023-05-02T07:12:41.048Z,1.52
2023-05-02T07:15:46.603Z,1.45
2023-05-02T07:18:52.453Z,1.55
2023-05-02T07:21:58.878Z,1.80
2023-05-02T07:25:15.770Z,1.95
2023-05-02T07:28:22.222Z,1.72
2023-05-02T07:31:28.653Z,1.37
2023-05-02T07:34:34.774Z,1.92
2023-05-02T07:37:39.679Z,1.60
2023-05-02T07:40:45.244Z,1.25
2023-05-02T07:43:50.805Z,1.80
2023-05-02T07:46:57.302Z,1.80
2023-05-02T07:50:06.268Z,1.27
2023-05-02T07:53:12.526Z,1.50
2023-05-02T07:56:20.133Z,1.35
2023-05-02T07:59:25.462Z,1.30
2023-05-02T08:02:30.656Z,1.75
2023-05-02T08:05:35.645Z,1.87
2023-05-02T08:08:41.905Z,1.52
2023-05-02T08:11:48.188Z,1.50
2023-05-02T08:14:54.134Z,1.30
2023-05-02T08:17:59.905Z,1.60
2023-05-02T08:21:01.730Z,1.32
2023-05-02T08:24:17.682Z,1.40
2023-05-02T08:27:17.452Z,1.32
2023-05-02T08:30:23.055Z,1.25
2023-05-02T08:33:28.850Z,1.35
2023-05-02T08:36:37.755Z,1.50
2023-05-02T08:39:44.628Z,1.50
2023-05-02T08:42:51.371Z,1.12
2023-05-02T08:45:58.175Z,1.20
2023-05-02T08:49:05.501Z,0.95
2023-05-02T08:52:11.248Z,1.10
2023-05-02T08:55:16.714Z,1.35
2023-05-02T08:58:24.774Z,1.37
2023-05-02T09:01:34.352Z,1.37
2023-05-02T09:04:41.534Z,1.37
2023-05-02T09:08:03.663Z,1.52
2023-05-02T09:11:08.471Z,1.60
2023-05-02T09:14:14.098Z,1.20
2023-05-02T09:17:19.646Z,1.55
2023-05-02T09:20:30.270Z,1.32
2023-05-02T09:23:47.174Z,1.12
2023-05-02T09:26:53.459Z,1.27
2023-05-02T09:30:01.220Z,1.20
2023-05-02T09:33:07.878Z,1.60
2023-05-02T09:36:14.349Z,1.30
2023-05-02T09:39:32.165Z,1.37
2023-05-02T09:42:47.063Z,1.17
2023-05-02T09:45:52.739Z,1.20
2023-05-02T09:49:10.578Z,1.10
2023-05-02T09:52:31.850Z,1.20
2023-05-02T09:55:36.811Z,0.88
2023-05-02T09:58:42.602Z,1.20
2023-05-02T10:01:47.397Z,1.30
2023-05-02T10:04:54.447Z,1.30
2023-05-02T10:08:01.521Z,0.90
2023-05-02T10:11:10.290Z,1.25
2023-05-02T10:14:16.445Z,1.70
2023-05-02T10:17:37.130Z,1.45
2023-05-02T10:20:46.826Z,1.12
2023-05-02T10:23:55.403Z,1.20
2023-05-02T10:27:01.963Z,1.12
2023-05-02T10:30:08.498Z,1.10
2023-05-02T10:33:15.286Z,1.60
2023-05-02T10:36:21.863Z,1.20
2023-05-02T10:39:29.411Z,1.42
2023-05-02T10:42:34.714Z,1.75
2023-05-02T10:45:49.883Z,1.60
2023-05-02T10:48:55.671Z,1.55
2023-05-02T10:52:00.847Z,1.47
2023-05-02T10:55:05.992Z,2.45
2023-05-02T10:58:18.026Z,1.90
2023-05-02T11:01:46.484Z,2.12
2023-05-02T11:05:16.021Z,1.65
2023-05-02T11:11:59.759Z,2.50
2023-05-02T11:15:04.989Z,2.10
2023-05-02T11:18:23.683Z,2.37
2023-05-02T11:21:46.738Z,2.10
2023-05-02T11:24:58.810Z,1.80
2023-05-02T11:28:05.792Z,2.08
2023-05-02T11:31:11.684Z,2.00
2023-05-02T11:34:18.302Z,2.00
2023-05-02T11:37:28.776Z,2.50
2023-05-02T11:40:34.983Z,2.30
2023-05-02T11:43:41.742Z,1.82
2023-05-02T11:46:47.108Z,1.87
2023-05-02T11:49:52.507Z,2.17
2023-05-02T11:52:59.057Z,2.10
2023-05-02T11:56:06.071Z,2.22
2023-05-02T11:59:14.920Z,1.82
2023-05-02T12:02:21.096Z,2.05
2023-05-02T12:05:28.714Z,2.83
2023-05-02T12:08:41.030Z,2.22
2023-05-02T12:11:46.712Z,2.10
2023-05-02T12:14:53.410Z,2.10
2023-05-02T12:18:04.151Z,2.17
2023-05-02T12:21:09.869Z,1.90
2023-05-02T12:24:17.756Z,1.62
2023-05-02T12:27:28.373Z,1.80
2023-05-02T12:30:45.522Z,1.72
2023-05-02T12:33:52.540Z,1.77
2023-05-02T12:37:00.829Z,1.57
2023-05-02T12:40:06.146Z,1.80
2023-05-02T12:43:17.486Z,2.98
2023-05-02T12:46:25.926Z,1.60
2023-05-02T12:49:31.872Z,1.80
2023-05-02T12:53:06.546Z,2.50
2023-05-02T12:56:18.103Z,1.90
2023-05-02T12:59:24.648Z,1.85
2023-05-02T13:02:31.494Z,1.50
2023-05-02T13:05:37.106Z,1.87
2023-05-02T13:08:42.687Z,2.37
2023-05-02T13:11:49.681Z,1.92
2023-05-02T13:14:56.070Z,1.70
2023-05-02T13:18:01.507Z,1.82
2023-05-02T13:21:07.112Z,2.37
2023-05-02T13:24:13.743Z,1.70
2023-05-02T13:27:19.456Z,2.22
2023-05-02T13:30:25.947Z,1.90
2023-05-02T13:33:30.866Z,2.05
2023-05-02T13:36:36.437Z,1.95
2023-05-02T13:39:42.188Z,2.05
2023-05-02T13:42:48.016Z,2.02
2023-05-02T13:45:55.124Z,1.87
2023-05-02T13:49:00.939Z,1.50
2023-05-02T13:52:07.134Z,2.00
2023-05-02T13:55:05.144Z,2.05
2023-05-02T13:58:11.183Z,1.42
2023-05-02T14:01:17.043Z,1.80
2023-05-02T14:04:23.735Z,1.57
2023-05-02T14:07:30.015Z,1.50
2023-05-02T14:10:35.219Z,1.50
2023-05-02T14:13:40.870Z,1.90
2023-05-02T14:16:49.547Z,1.72
2023-05-02T14:19:54.789Z,1.57
2023-05-02T14:23:00.429Z,1.37
2023-05-02T14:26:06.364Z,1.62
2023-05-02T14:29:11.880Z,2.10
2023-05-02T14:32:17.331Z,1.50
2023-05-02T14:35:23.546Z,2.60
2023-05-02T14:38:29.607Z,1.50
2023-05-02T14:41:35.065Z,1.62
2023-05-02T14:44:39.752Z,1.42
2023-05-02T14:47:46.038Z,1.92
2023-05-02T14:50:52.521Z,3.33
2023-05-02T14:53:58.091Z,2.33
2023-05-02T14:57:04.238Z,1.95
2023-05-02T15:00:10.827Z,2.10
2023-05-02T15:03:16.976Z,1.72
2023-05-02T15:06:16.534Z,1.70
2023-05-02T15:09:23.164Z,2.08
2023-05-02T15:12:29.014Z,1.80
2023-05-02T15:15:34.828Z,2.10
2023-05-02T15:18:40.608Z,1.98
2023-05-02T15:21:46.445Z,1.72
2023-05-02T15:24:52.292Z,1.82
2023-05-02T15:27:57.264Z,1.70
2023-05-02T15:31:03.045Z,1.75
2023-05-02T15:34:08.993Z,1.95
2023-05-02T15:37:15.470Z,1.85
2023-05-02T15:40:21.211Z,1.17
2023-05-02T15:43:26.737Z,1.40
2023-05-02T15:46:32.411Z,1.60
2023-05-02T15:49:39.768Z,1.47
2023-05-02T15:52:45.576Z,1.85
2023-05-02T15:55:53.303Z,1.57
2023-05-02T15:58:59.966Z,2.08
2023-05-02T16:02:04.862Z,1.70
2023-05-02T16:05:10.724Z,1.60
2023-05-02T16:08:16.239Z,1.62
2023-05-02T16:11:21.901Z,2.00
2023-05-02T16:14:29.116Z,1.98
2023-05-02T16:17:34.445Z,1.70
2023-05-02T16:20:42.726Z,1.77
2023-05-02T16:23:49.383Z,2.17
2023-05-02T16:26:55.744Z,2.10
2023-05-02T16:30:01.337Z,1.65
2023-05-02T16:33:06.991Z,1.80
2023-05-02T16:36:17.605Z,1.65
2023-05-02T16:39:24.972Z,1.90
2023-05-02T16:42:30.112Z,1.80
2023-05-02T16:45:35.015Z,1.70
2023-05-02T16:48:34.012Z,1.60
2023-05-02T16:51:40.390Z,1.87
2023-05-02T16:54:38.401Z,1.70
2023-05-02T16:57:24.006Z,1.65
2023-05-02T17:00:25.523Z,2.10
2023-05-02T17:03:32.155Z,2.25
2023-05-02T17:06:38.725Z,1.70
2023-05-02T17:09:45.678Z,1.70
2023-05-02T17:12:53.188Z,1.90
2023-05-02T17:16:00.351Z,1.98
2023-05-02T17:19:06.035Z,2.12
2023-05-02T17:22:13.703Z,1.80
2023-05-02T17:25:20.199Z,2.20
2023-05-02T17:28:26.690Z,2.02
2023-05-02T17:31:31.744Z,2.10
2023-05-02T17:34:41.020Z,2.50
2023-05-02T17:37:46.890Z,2.52
2023-05-02T17:40:52.799Z,3.00
2023-05-02T17:43:51.607Z,3.15
2023-05-02T17:46:51.693Z,4.10
2023-05-02T17:49:58.536Z,8.75
2023-05-02T17:53:05.597Z,7.58
2023-05-02T17:56:11.766Z,7.97
2023-05-02T17:59:18.562Z,13.65
2023-05-02T18:02:24.808Z,10.63
2023-05-02T18:05:32.997Z,12.18
2023-05-02T18:08:39.325Z,11.08
2023-05-02T18:11:46.583Z,8.13
2023-05-02T18:14:53.150Z,13.58
2023-05-02T18:18:02.772Z,5.65
2023-05-02T18:21:08.252Z,7.92
2023-05-02T18:24:14.796Z,18.95
2023-05-02T18:27:21.926Z,6.65
2023-05-02T18:30:28.428Z,4.75
2023-05-02T18:33:34.830Z,4.10
2023-05-02T18:36:41.618Z,3.50
2023-05-02T18:39:46.480Z,3.70
2023-05-02T18:42:51.586Z,7.55
2023-05-02T18:45:56.121Z,14.55
2023-05-02T18:49:02.310Z,5.53
2023-05-02T18:52:12.487Z,14.60
2023-05-02T18:55:18.345Z,7.72
2023-05-02T18:58:24.313Z,9.15
2023-05-02T19:01:32.886Z,27.85
2023-05-02T19:04:39.046Z,11.68
2023-05-02T19:07:43.909Z,6.12
2023-05-02T19:10:49.197Z,4.60
2023-05-02T19:13:54.513Z,10.85
2023-05-02T19:16:53.163Z,7.47
2023-05-02T19:19:59.633Z,10.50
2023-05-02T19:23:18.965Z,9.45
2023-05-02T19:26:13.865Z,11.12
2023-05-02T19:29:19.779Z,11.93
2023-05-02T19:32:25.429Z,9.45
2023-05-02T19:35:32.259Z,8.78
2023-05-02T19:38:38.453Z,7.60
2023-05-02T19:41:45.435Z,7.17
2023-05-02T19:44:51.558Z,6.80
2023-05-02T19:47:58.310Z,7.00
2023-05-02T19:51:05.389Z,7.47
2023-05-02T19:54:10.659Z,19.30
2023-05-02T19:57:17.224Z,11.22
2023-05-02T20:00:23.552Z,9.03
2023-05-02T20:03:29.149Z,11.90
2023-05-02T20:06:35.650Z,16.02
2023-05-02T20:09:41.017Z,15.48
2023-05-02T20:12:46.079Z,14.45
2023-05-02T20:15:52.527Z,16.00
2023-05-02T20:18:57.612Z,10.60
2023-05-02T20:22:03.017Z,10.55
2023-05-02T20:25:09.043Z,12.05
2023-05-02T20:28:13.595Z,10.65
2023-05-02T20:31:19.283Z,7.12
2023-05-02T20:34:25.919Z,4.42
2023-05-02T20:37:32.446Z,7.92
2023-05-02T20:40:39.475Z,11.50
2023-05-02T20:43:46.492Z,9.90
2023-05-02T20:46:51.810Z,6.62
2023-05-02T20:49:57.756Z,8.03
2023-05-02T20:53:04.303Z,7.42
2023-05-02T20:56:09.577Z,9.28
2023-05-02T20:59:16.122Z,4.92
2023-05-02T21:02:20.966Z,6.50
2023-05-02T21:05:26.618Z,4.55
2023-05-02T21:08:31.899Z,5.30
2023-05-02T21:11:36.837Z,9.30
2023-05-02T21:14:42.454Z,5.05
2023-05-02T21:17:48.432Z,3.33
2023-05-02T21:20:54.723Z,4.78
2023-05-02T21:24:00.562Z,5.35
2023-05-02T21:27:06.892Z,5.78
2023-05-02T21:30:12.271Z,5.62
2023-05-02T21:33:17.464Z,7.05
2023-05-02T21:36:22.688Z,6.72
2023-05-02T21:39:28.810Z,5.75
2023-05-02T21:42:34.782Z,5.35
2023-05-02T21:45:34.219Z,4.03
2023-05-02T21:48:28.793Z,5.00
2023-05-02T21:51:33.716Z,5.22
2023-05-02T21:54:39.932Z,5.53
2023-05-02T21:57:44.773Z,4.60
2023-05-02T22:00:54.120Z,4.30
2023-05-02T22:03:59.264Z,12.37
2023-05-02T22:07:06.001Z,11.03
2023-05-02T22:10:11.410Z,8.88
2023-05-02T22:13:18.633Z,5.20
2023-05-02T22:16:25.341Z,4.25
2023-05-02T22:19:31.273Z,5.05
2023-05-02T22:22:30.810Z,6.60
2023-05-02T22:25:23.775Z,5.50
2023-05-02T22:28:28.424Z,3.95
2023-05-02T22:31:35.063Z,8.48
2023-05-02T22:34:40.407Z,10.13
2023-05-02T22:37:45.880Z,12.58
2023-05-02T22:40:51.405Z,9.30
2023-05-02T22:43:57.946Z,8.68
2023-05-02T22:47:04.143Z,7.37
2023-05-02T22:50:11.146Z,13.93
2023-05-02T22:53:16.991Z,11.45
2023-05-02T22:56:22.225Z,9.75
2023-05-02T22:59:27.859Z,14.20
2023-05-02T23:02:33.820Z,6.87
2023-05-02T23:05:40.292Z,6.60
2023-05-02T23:08:46.157Z,8.05
2023-05-02T23:11:52.251Z,6.70
2023-05-02T23:15:00.057Z,7.50
2023-05-02T23:18:05.342Z,9.13
2023-05-02T23:21:10.586Z,7.25
2023-05-02T23:24:17.312Z,6.97
2023-05-02T23:27:22.761Z,5.83
2023-05-02T23:30:27.984Z,5.78
2023-05-02T23:33:33.772Z,4.80
2023-05-02T23:36:34.465Z,3.98
2023-05-02T23:39:40.583Z,4.08
2023-05-02T23:42:46.604Z,3.72
2023-05-02T23:45:51.294Z,4.25
2023-05-02T23:48:56.859Z,4.72
2023-05-02T23:52:02.936Z,3.65
2023-05-02T23:55:07.965Z,3.40
2023-05-02T23:58:13.803Z,3.90
